sensor_id;sensor_type;location;lat;lon;timestamp;P1;durP1;ratioP1;P2;durP2;ratioP2
59418;SDS011;45224;50.904;6.038;2023-05-29T00:00:10;8.00;;;4.17;;
59418;SDS011;45224;50.904;6.038;2023-05-29T00:01:43;10.70;;;4.20;;
59418;SDS011;45224;50.904;6.038;2023-05-29T00:03:14;8.40;;;3.47;;
59418;SDS011;45224;50.904;6.038;2023-05-29T00:04:44;8.63;;;3.60;;
59418;SDS011;45224;50.904;6.038;2023-05-29T00:06:15;9.30;;;3.57;;
59418;SDS011;45224;50.904;6.038;2023-05-29T00:07:45;9.03;;;3.90;;
59418;SDS011;45224;50.904;6.038;2023-05-29T00:09:16;12.65;;;4.10;;
59418;SDS011;45224;50.904;6.038;2023-05-29T00:10:46;7.43;;;3.60;;
59418;SDS011;45224;50.904;6.038;2023-05-29T00:12:17;10.83;;;4.10;;
59418;SDS011;45224;50.904;6.038;2023-05-29T00:13:48;9.60;;;4.40;;
59418;SDS011;45224;50.904;6.038;2023-05-29T00:15:19;7.90;;;4.03;;
59418;SDS011;45224;50.904;6.038;2023-05-29T00:16:50;10.95;;;4.13;;
59418;SDS011;45224;50.904;6.038;2023-05-29T00:18:22;9.20;;;4.15;;
59418;SDS011;45224;50.904;6.038;2023-05-29T00:19:52;8.67;;;3.93;;
59418;SDS011;45224;50.904;6.038;2023-05-29T00:21:23;10.87;;;3.83;;
59418;SDS011;45224;50.904;6.038;2023-05-29T00:22:53;8.93;;;3.75;;
59418;SDS011;45224;50.904;6.038;2023-05-29T00:24:24;8.53;;;3.90;;
59418;SDS011;45224;50.904;6.038;2023-05-29T00:25:55;6.82;;;3.45;;
59418;SDS011;45224;50.904;6.038;2023-05-29T00:27:25;7.83;;;3.87;;
59418;SDS011;45224;50.904;6.038;2023-05-29T00:28:56;9.67;;;3.90;;
59418;SDS011;45224;50.904;6.038;2023-05-29T00:30:26;8.23;;;3.77;;
59418;SDS011;45224;50.904;6.038;2023-05-29T00:31:57;9.98;;;3.75;;
59418;SDS011;45224;50.904;6.038;2023-05-29T00:33:27;9.07;;;4.07;;
59418;SDS011;45224;50.904;6.038;2023-05-29T00:34:58;8.48;;;3.67;;
59418;SDS011;45224;50.904;6.038;2023-05-29T00:36:28;7.63;;;3.60;;
59418;SDS011;45224;50.904;6.038;2023-05-29T00:37:59;6.35;;;3.70;;
59418;SDS011;45224;50.904;6.038;2023-05-29T00:39:30;9.18;;;3.53;;
59418;SDS011;45224;50.904;6.038;2023-05-29T00:41:01;7.35;;;3.70;;
59418;SDS011;45224;50.904;6.038;2023-05-29T00:42:32;8.18;;;3.85;;
59418;SDS011;45224;50.904;6.038;2023-05-29T00:44:03;9.33;;;3.33;;
59418;SDS011;45224;50.904;6.038;2023-05-29T00:45:33;7.45;;;3.72;;
59418;SDS011;45224;50.904;6.038;2023-05-29T00:47:06;7.82;;;3.97;;
59418;SDS011;45224;50.904;6.038;2023-05-29T00:48:37;9.32;;;4.03;;
59418;SDS011;45224;50.904;6.038;2023-05-29T00:50:08;8.00;;;3.80;;
59418;SDS011;45224;50.904;6.038;2023-05-29T00:51:40;8.68;;;3.45;;
59418;SDS011;45224;50.904;6.038;2023-05-29T00:53:13;7.13;;;3.92;;
59418;SDS011;45224;50.904;6.038;2023-05-29T00:54:44;9.85;;;3.55;;
59418;SDS011;45224;50.904;6.038;2023-05-29T00:56:15;8.70;;;3.40;;
59418;SDS011;45224;50.904;6.038;2023-05-29T00:57:47;8.50;;;4.05;;
59418;SDS011;45224;50.904;6.038;2023-05-29T00:59:19;10.05;;;4.10;;
59418;SDS011;45224;50.904;6.038;2023-05-29T01:00:52;11.88;;;4.47;;
59418;SDS011;45224;50.904;6.038;2023-05-29T01:03:55;7.10;;;3.50;;
59418;SDS011;45224;50.904;6.038;2023-05-29T01:05:27;7.55;;;3.75;;
59418;SDS011;45224;50.904;6.038;2023-05-29T01:06:59;7.82;;;3.80;;
59418;SDS011;45224;50.904;6.038;2023-05-29T01:08:32;7.78;;;3.97;;
59418;SDS011;45224;50.904;6.038;2023-05-29T01:10:03;8.50;;;3.63;;
59418;SDS011;45224;50.904;6.038;2023-05-29T01:13:19;8.75;;;3.80;;
59418;SDS011;45224;50.904;6.038;2023-05-29T01:17:06;6.55;;;3.60;;
59418;SDS011;45224;50.904;6.038;2023-05-29T01:20:45;8.07;;;3.45;;
59418;SDS011;45224;50.904;6.038;2023-05-29T01:22:25;5.05;;;3.05;;
59418;SDS011;45224;50.904;6.038;2023-05-29T01:27:55;9.15;;;4.18;;
59418;SDS011;45224;50.904;6.038;2023-05-29T01:29:32;12.30;;;3.40;;
59418;SDS011;45224;50.904;6.038;2023-05-29T01:31:05;10.40;;;3.97;;
59418;SDS011;45224;50.904;6.038;2023-05-29T01:32:37;6.63;;;3.80;;
59418;SDS011;45224;50.904;6.038;2023-05-29T01:34:09;5.00;;;3.47;;
59418;SDS011;45224;50.904;6.038;2023-05-29T01:35:40;7.93;;;3.70;;
59418;SDS011;45224;50.904;6.038;2023-05-29T01:37:13;8.32;;;4.32;;
59418;SDS011;45224;50.904;6.038;2023-05-29T01:38:43;8.83;;;3.53;;
59418;SDS011;45224;50.904;6.038;2023-05-29T01:40:15;5.97;;;3.60;;
59418;SDS011;45224;50.904;6.038;2023-05-29T01:41:46;5.05;;;3.25;;
59418;SDS011;45224;50.904;6.038;2023-05-29T01:43:17;9.68;;;3.63;;
59418;SDS011;45224;50.904;6.038;2023-05-29T01:44:47;8.82;;;3.97;;
59418;SDS011;45224;50.904;6.038;2023-05-29T01:46:20;7.05;;;3.40;;
59418;SDS011;45224;50.904;6.038;2023-05-29T01:47:51;6.97;;;3.78;;
59418;SDS011;45224;50.904;6.038;2023-05-29T01:49:25;7.43;;;3.97;;
59418;SDS011;45224;50.904;6.038;2023-05-29T01:50:58;9.02;;;4.07;;
59418;SDS011;45224;50.904;6.038;2023-05-29T01:52:29;8.75;;;4.35;;
59418;SDS011;45224;50.904;6.038;2023-05-29T01:53:59;9.43;;;4.37;;
59418;SDS011;45224;50.904;6.038;2023-05-29T01:55:30;6.18;;;3.72;;
59418;SDS011;45224;50.904;6.038;2023-05-29T01:57:01;11.52;;;3.95;;
59418;SDS011;45224;50.904;6.038;2023-05-29T01:58:33;13.50;;;4.20;;
59418;SDS011;45224;50.904;6.038;2023-05-29T02:00:05;8.63;;;4.40;;
59418;SDS011;45224;50.904;6.038;2023-05-29T02:01:44;7.75;;;4.10;;
59418;SDS011;45224;50.904;6.038;2023-05-29T02:03:15;8.90;;;3.80;;
59418;SDS011;45224;50.904;6.038;2023-05-29T02:04:45;8.68;;;3.97;;
59418;SDS011;45224;50.904;6.038;2023-05-29T02:06:16;7.77;;;3.93;;
59418;SDS011;45224;50.904;6.038;2023-05-29T02:07:47;7.05;;;3.53;;
59418;SDS011;45224;50.904;6.038;2023-05-29T02:09:17;8.67;;;4.40;;
59418;SDS011;45224;50.904;6.038;2023-05-29T02:10:48;9.77;;;4.00;;
59418;SDS011;45224;50.904;6.038;2023-05-29T02:12:19;7.82;;;4.15;;
59418;SDS011;45224;50.904;6.038;2023-05-29T02:13:49;10.82;;;4.28;;
59418;SDS011;45224;50.904;6.038;2023-05-29T02:15:21;7.22;;;3.97;;
59418;SDS011;45224;50.904;6.038;2023-05-29T02:16:52;4.77;;;3.37;;
59418;SDS011;45224;50.904;6.038;2023-05-29T02:18:23;10.37;;;4.47;;
59418;SDS011;45224;50.904;6.038;2023-05-29T02:19:53;7.97;;;4.35;;
59418;SDS011;45224;50.904;6.038;2023-05-29T02:21:24;9.33;;;4.33;;
59418;SDS011;45224;50.904;6.038;2023-05-29T02:22:54;9.67;;;4.17;;
59418;SDS011;45224;50.904;6.038;2023-05-29T02:24:25;9.60;;;3.90;;
59418;SDS011;45224;50.904;6.038;2023-05-29T02:25:55;7.53;;;4.00;;
59418;SDS011;45224;50.904;6.038;2023-05-29T02:27:26;8.60;;;3.78;;
59418;SDS011;45224;50.904;6.038;2023-05-29T02:28:56;6.50;;;3.57;;
59418;SDS011;45224;50.904;6.038;2023-05-29T02:30:27;7.47;;;4.00;;
59418;SDS011;45224;50.904;6.038;2023-05-29T02:31:58;7.25;;;3.95;;
59418;SDS011;45224;50.904;6.038;2023-05-29T02:33:29;7.85;;;4.40;;
59418;SDS011;45224;50.904;6.038;2023-05-29T02:34:59;6.75;;;4.05;;
59418;SDS011;45224;50.904;6.038;2023-05-29T02:36:30;7.90;;;4.10;;
59418;SDS011;45224;50.904;6.038;2023-05-29T02:38:02;8.73;;;4.47;;
59418;SDS011;45224;50.904;6.038;2023-05-29T02:39:32;6.60;;;4.30;;
59418;SDS011;45224;50.904;6.038;2023-05-29T02:41:03;12.57;;;5.07;;
59418;SDS011;45224;50.904;6.038;2023-05-29T02:42:33;7.97;;;4.73;;
59418;SDS011;45224;50.904;6.038;2023-05-29T02:44:04;11.13;;;4.47;;
59418;SDS011;45224;50.904;6.038;2023-05-29T02:45:34;9.63;;;4.40;;
59418;SDS011;45224;50.904;6.038;2023-05-29T02:47:05;9.93;;;5.00;;
59418;SDS011;45224;50.904;6.038;2023-05-29T02:48:35;8.10;;;4.80;;
59418;SDS011;45224;50.904;6.038;2023-05-29T02:50:06;9.33;;;5.00;;
59418;SDS011;45224;50.904;6.038;2023-05-29T02:51:38;11.93;;;4.60;;
59418;SDS011;45224;50.904;6.038;2023-05-29T02:53:08;9.27;;;4.67;;
59418;SDS011;45224;50.904;6.038;2023-05-29T02:54:39;10.20;;;5.15;;
59418;SDS011;45224;50.904;6.038;2023-05-29T02:56:10;10.30;;;4.72;;
59418;SDS011;45224;50.904;6.038;2023-05-29T02:57:42;11.48;;;4.85;;
59418;SDS011;45224;50.904;6.038;2023-05-29T02:59:12;10.73;;;4.40;;
59418;SDS011;45224;50.904;6.038;2023-05-29T03:00:43;7.63;;;5.03;;
59418;SDS011;45224;50.904;6.038;2023-05-29T03:02:13;11.40;;;5.33;;
59418;SDS011;45224;50.904;6.038;2023-05-29T03:03:44;8.35;;;4.90;;
59418;SDS011;45224;50.904;6.038;2023-05-29T03:05:16;14.10;;;5.00;;
59418;SDS011;45224;50.904;6.038;2023-05-29T03:06:47;9.50;;;4.88;;
59418;SDS011;45224;50.904;6.038;2023-05-29T03:08:18;9.93;;;4.97;;
59418;SDS011;45224;50.904;6.038;2023-05-29T03:09:49;12.77;;;5.13;;
59418;SDS011;45224;50.904;6.038;2023-05-29T03:11:20;8.45;;;4.50;;
59418;SDS011;45224;50.904;6.038;2023-05-29T03:12:53;8.15;;;4.75;;
59418;SDS011;45224;50.904;6.038;2023-05-29T03:14:24;9.50;;;4.55;;
59418;SDS011;45224;50.904;6.038;2023-05-29T03:15:55;12.02;;;5.00;;
59418;SDS011;45224;50.904;6.038;2023-05-29T03:17:27;11.63;;;5.63;;
59418;SDS011;45224;50.904;6.038;2023-05-29T03:19:01;8.85;;;4.47;;
59418;SDS011;45224;50.904;6.038;2023-05-29T03:20:32;10.18;;;4.47;;
59418;SDS011;45224;50.904;6.038;2023-05-29T03:22:04;10.90;;;4.60;;
59418;SDS011;45224;50.904;6.038;2023-05-29T03:23:36;11.48;;;5.30;;
59418;SDS011;45224;50.904;6.038;2023-05-29T03:25:07;12.73;;;5.03;;
59418;SDS011;45224;50.904;6.038;2023-05-29T03:28:09;9.33;;;4.27;;
59418;SDS011;45224;50.904;6.038;2023-05-29T03:29:40;12.18;;;4.47;;
59418;SDS011;45224;50.904;6.038;2023-05-29T03:31:11;11.18;;;5.00;;
59418;SDS011;45224;50.904;6.038;2023-05-29T03:32:42;10.40;;;4.70;;
59418;SDS011;45224;50.904;6.038;2023-05-29T03:34:13;10.98;;;4.80;;
59418;SDS011;45224;50.904;6.038;2023-05-29T03:35:51;8.10;;;4.43;;
59418;SDS011;45224;50.904;6.038;2023-05-29T03:37:22;11.30;;;4.65;;
59418;SDS011;45224;50.904;6.038;2023-05-29T03:38:52;14.13;;;5.15;;
59418;SDS011;45224;50.904;6.038;2023-05-29T03:40:24;10.25;;;4.32;;
59418;SDS011;45224;50.904;6.038;2023-05-29T03:41:54;8.53;;;4.43;;
59418;SDS011;45224;50.904;6.038;2023-05-29T03:43:25;12.03;;;5.13;;
59418;SDS011;45224;50.904;6.038;2023-05-29T03:44:55;10.47;;;4.43;;
59418;SDS011;45224;50.904;6.038;2023-05-29T03:46:27;10.65;;;4.68;;
59418;SDS011;45224;50.904;6.038;2023-05-29T03:47:58;12.82;;;4.57;;
59418;SDS011;45224;50.904;6.038;2023-05-29T03:49:28;12.73;;;4.40;;
59418;SDS011;45224;50.904;6.038;2023-05-29T03:50:59;9.57;;;4.30;;
59418;SDS011;45224;50.904;6.038;2023-05-29T03:52:35;14.27;;;4.97;;
59418;SDS011;45224;50.904;6.038;2023-05-29T03:54:06;11.63;;;4.30;;
59418;SDS011;45224;50.904;6.038;2023-05-29T03:55:39;10.75;;;3.95;;
59418;SDS011;45224;50.904;6.038;2023-05-29T03:57:12;12.40;;;4.78;;
59418;SDS011;45224;50.904;6.038;2023-05-29T03:58:43;12.93;;;4.87;;
59418;SDS011;45224;50.904;6.038;2023-05-29T04:00:13;11.25;;;4.28;;
59418;SDS011;45224;50.904;6.038;2023-05-29T04:01:44;12.05;;;4.03;;
59418;SDS011;45224;50.904;6.038;2023-05-29T04:03:15;9.00;;;4.25;;
59418;SDS011;45224;50.904;6.038;2023-05-29T04:04:46;13.10;;;3.80;;
59418;SDS011;45224;50.904;6.038;2023-05-29T04:06:16;13.50;;;4.32;;
59418;SDS011;45224;50.904;6.038;2023-05-29T04:07:48;11.73;;;3.75;;
59418;SDS011;45224;50.904;6.038;2023-05-29T04:09:19;9.30;;;4.03;;
59418;SDS011;45224;50.904;6.038;2023-05-29T04:10:49;13.83;;;3.97;;
59418;SDS011;45224;50.904;6.038;2023-05-29T04:12:25;9.20;;;4.28;;
59418;SDS011;45224;50.904;6.038;2023-05-29T04:13:55;17.10;;;3.90;;
59418;SDS011;45224;50.904;6.038;2023-05-29T04:15:26;12.20;;;3.30;;
59418;SDS011;45224;50.904;6.038;2023-05-29T04:16:58;8.90;;;3.58;;
59418;SDS011;45224;50.904;6.038;2023-05-29T04:18:28;9.27;;;4.03;;
59418;SDS011;45224;50.904;6.038;2023-05-29T04:19:59;9.07;;;3.77;;
59418;SDS011;45224;50.904;6.038;2023-05-29T04:21:33;10.68;;;3.75;;
59418;SDS011;45224;50.904;6.038;2023-05-29T04:23:05;10.75;;;3.97;;
59418;SDS011;45224;50.904;6.038;2023-05-29T04:24:36;12.85;;;3.72;;
59418;SDS011;45224;50.904;6.038;2023-05-29T04:26:07;15.30;;;3.78;;
59418;SDS011;45224;50.904;6.038;2023-05-29T04:27:40;15.57;;;4.10;;
59418;SDS011;45224;50.904;6.038;2023-05-29T04:29:13;10.77;;;3.70;;
59418;SDS011;45224;50.904;6.038;2023-05-29T04:30:45;13.18;;;3.90;;
59418;SDS011;45224;50.904;6.038;2023-05-29T04:32:16;8.43;;;3.20;;
59418;SDS011;45224;50.904;6.038;2023-05-29T04:33:47;10.05;;;3.35;;
59418;SDS011;45224;50.904;6.038;2023-05-29T04:35:19;9.50;;;3.53;;
59418;SDS011;45224;50.904;6.038;2023-05-29T04:36:58;11.18;;;4.00;;
59418;SDS011;45224;50.904;6.038;2023-05-29T04:38:28;11.23;;;3.27;;
59418;SDS011;45224;50.904;6.038;2023-05-29T04:39:59;9.90;;;3.03;;
59418;SDS011;45224;50.904;6.038;2023-05-29T04:41:33;9.07;;;3.08;;
59418;SDS011;45224;50.904;6.038;2023-05-29T04:43:05;9.77;;;3.38;;
59418;SDS011;45224;50.904;6.038;2023-05-29T04:44:51;13.32;;;3.45;;
59418;SDS011;45224;50.904;6.038;2023-05-29T04:46:25;8.30;;;3.10;;
59418;SDS011;45224;50.904;6.038;2023-05-29T04:47:56;9.30;;;3.13;;
59418;SDS011;45224;50.904;6.038;2023-05-29T04:49:28;12.05;;;3.40;;
59418;SDS011;45224;50.904;6.038;2023-05-29T04:50:59;10.43;;;2.80;;
59418;SDS011;45224;50.904;6.038;2023-05-29T04:52:29;11.45;;;3.47;;
59418;SDS011;45224;50.904;6.038;2023-05-29T04:54:00;10.45;;;3.33;;
59418;SDS011;45224;50.904;6.038;2023-05-29T04:55:31;13.50;;;3.15;;
59418;SDS011;45224;50.904;6.038;2023-05-29T04:57:02;9.17;;;3.30;;
59418;SDS011;45224;50.904;6.038;2023-05-29T04:58:37;14.52;;;2.85;;
59418;SDS011;45224;50.904;6.038;2023-05-29T05:00:08;6.70;;;2.65;;
59418;SDS011;45224;50.904;6.038;2023-05-29T05:01:43;9.27;;;2.50;;
59418;SDS011;45224;50.904;6.038;2023-05-29T05:03:15;8.82;;;2.88;;
59418;SDS011;45224;50.904;6.038;2023-05-29T05:04:47;9.98;;;2.80;;
59418;SDS011;45224;50.904;6.038;2023-05-29T05:06:18;9.52;;;3.40;;
59418;SDS011;45224;50.904;6.038;2023-05-29T05:07:48;13.63;;;3.03;;
59418;SDS011;45224;50.904;6.038;2023-05-29T05:09:19;11.77;;;3.00;;
59418;SDS011;45224;50.904;6.038;2023-05-29T05:10:50;14.00;;;3.55;;
59418;SDS011;45224;50.904;6.038;2023-05-29T05:12:21;16.60;;;3.03;;
59418;SDS011;45224;50.904;6.038;2023-05-29T05:13:51;11.80;;;2.90;;
59418;SDS011;45224;50.904;6.038;2023-05-29T05:15:22;11.20;;;2.72;;
59418;SDS011;45224;50.904;6.038;2023-05-29T05:16:53;12.03;;;2.93;;
59418;SDS011;45224;50.904;6.038;2023-05-29T05:18:23;10.87;;;2.90;;
59418;SDS011;45224;50.904;6.038;2023-05-29T05:21:36;11.35;;;2.78;;
59418;SDS011;45224;50.904;6.038;2023-05-29T05:23:07;10.38;;;2.97;;
59418;SDS011;45224;50.904;6.038;2023-05-29T05:24:38;11.45;;;3.13;;
59418;SDS011;45224;50.904;6.038;2023-05-29T05:26:08;10.87;;;3.10;;
59418;SDS011;45224;50.904;6.038;2023-05-29T05:27:40;10.98;;;3.13;;
59418;SDS011;45224;50.904;6.038;2023-05-29T05:29:11;9.43;;;2.77;;
59418;SDS011;45224;50.904;6.038;2023-05-29T05:30:43;12.95;;;2.60;;
59418;SDS011;45224;50.904;6.038;2023-05-29T05:32:14;16.00;;;3.20;;
59418;SDS011;45224;50.904;6.038;2023-05-29T05:33:45;11.30;;;3.33;;
59418;SDS011;45224;50.904;6.038;2023-05-29T05:35:16;9.70;;;2.85;;
59418;SDS011;45224;50.904;6.038;2023-05-29T05:38:18;12.52;;;2.70;;
59418;SDS011;45224;50.904;6.038;2023-05-29T05:39:52;11.50;;;2.75;;
59418;SDS011;45224;50.904;6.038;2023-05-29T05:41:24;14.18;;;3.13;;
59418;SDS011;45224;50.904;6.038;2023-05-29T05:42:56;14.88;;;3.10;;
59418;SDS011;45224;50.904;6.038;2023-05-29T05:44:38;15.10;;;2.92;;
59418;SDS011;45224;50.904;6.038;2023-05-29T05:46:13;14.35;;;3.25;;
59418;SDS011;45224;50.904;6.038;2023-05-29T05:47:46;12.65;;;2.97;;
59418;SDS011;45224;50.904;6.038;2023-05-29T05:49:17;12.85;;;3.10;;
59418;SDS011;45224;50.904;6.038;2023-05-29T05:50:47;13.33;;;3.30;;
59418;SDS011;45224;50.904;6.038;2023-05-29T05:52:19;15.90;;;3.40;;
59418;SDS011;45224;50.904;6.038;2023-05-29T05:53:49;13.90;;;3.17;;
59418;SDS011;45224;50.904;6.038;2023-05-29T05:55:20;12.30;;;2.65;;
59418;SDS011;45224;50.904;6.038;2023-05-29T05:56:51;12.70;;;3.33;;
59418;SDS011;45224;50.904;6.038;2023-05-29T05:58:23;11.57;;;3.20;;
59418;SDS011;45224;50.904;6.038;2023-05-29T05:59:53;14.13;;;2.58;;
59418;SDS011;45224;50.904;6.038;2023-05-29T06:01:26;12.18;;;3.28;;
59418;SDS011;45224;50.904;6.038;2023-05-29T06:02:57;7.93;;;2.45;;
59418;SDS011;45224;50.904;6.038;2023-05-29T06:04:56;11.85;;;3.10;;
59418;SDS011;45224;50.904;6.038;2023-05-29T06:06:26;13.53;;;2.87;;
59418;SDS011;45224;50.904;6.038;2023-05-29T06:07:57;13.43;;;3.30;;
59418;SDS011;45224;50.904;6.038;2023-05-29T06:09:28;11.60;;;3.15;;
59418;SDS011;45224;50.904;6.038;2023-05-29T06:11:00;11.95;;;2.75;;
59418;SDS011;45224;50.904;6.038;2023-05-29T06:12:30;14.25;;;3.00;;
59418;SDS011;45224;50.904;6.038;2023-05-29T06:14:11;13.55;;;2.85;;
59418;SDS011;45224;50.904;6.038;2023-05-29T06:15:42;15.83;;;3.00;;
59418;SDS011;45224;50.904;6.038;2023-05-29T06:17:13;10.18;;;2.45;;
59418;SDS011;45224;50.904;6.038;2023-05-29T06:18:43;11.83;;;2.70;;
59418;SDS011;45224;50.904;6.038;2023-05-29T06:20:14;15.30;;;2.97;;
59418;SDS011;45224;50.904;6.038;2023-05-29T06:21:45;13.43;;;3.13;;
59418;SDS011;45224;50.904;6.038;2023-05-29T06:23:15;12.03;;;2.90;;
59418;SDS011;45224;50.904;6.038;2023-05-29T06:24:46;14.20;;;3.50;;
59418;SDS011;45224;50.904;6.038;2023-05-29T06:26:17;11.40;;;2.88;;
59418;SDS011;45224;50.904;6.038;2023-05-29T06:27:47;12.67;;;3.70;;
59418;SDS011;45224;50.904;6.038;2023-05-29T06:29:18;13.97;;;3.13;;
59418;SDS011;45224;50.904;6.038;2023-05-29T06:30:49;14.80;;;3.55;;
59418;SDS011;45224;50.904;6.038;2023-05-29T06:32:19;11.20;;;2.67;;
59418;SDS011;45224;50.904;6.038;2023-05-29T06:33:50;15.27;;;3.38;;
59418;SDS011;45224;50.904;6.038;2023-05-29T06:35:21;17.30;;;3.70;;
59418;SDS011;45224;50.904;6.038;2023-05-29T06:36:52;15.00;;;3.35;;
59418;SDS011;45224;50.904;6.038;2023-05-29T06:38:22;13.53;;;3.30;;
59418;SDS011;45224;50.904;6.038;2023-05-29T06:39:53;11.17;;;2.90;;
59418;SDS011;45224;50.904;6.038;2023-05-29T06:41:23;10.20;;;3.17;;
59418;SDS011;45224;50.904;6.038;2023-05-29T06:42:55;10.32;;;2.58;;
59418;SDS011;45224;50.904;6.038;2023-05-29T06:44:39;10.00;;;2.63;;
59418;SDS011;45224;50.904;6.038;2023-05-29T06:47:41;14.43;;;2.83;;
59418;SDS011;45224;50.904;6.038;2023-05-29T06:49:13;17.77;;;3.13;;
59418;SDS011;45224;50.904;6.038;2023-05-29T06:50:43;11.97;;;3.00;;
59418;SDS011;45224;50.904;6.038;2023-05-29T06:52:34;15.13;;;3.03;;
59418;SDS011;45224;50.904;6.038;2023-05-29T06:54:19;12.82;;;3.00;;
59418;SDS011;45224;50.904;6.038;2023-05-29T06:55:52;13.77;;;2.83;;
59418;SDS011;45224;50.904;6.038;2023-05-29T06:57:23;16.60;;;3.35;;
59418;SDS011;45224;50.904;6.038;2023-05-29T06:58:53;13.33;;;3.17;;
59418;SDS011;45224;50.904;6.038;2023-05-29T07:00:25;21.38;;;3.58;;
59418;SDS011;45224;50.904;6.038;2023-05-29T07:02:16;13.55;;;2.88;;
59418;SDS011;45224;50.904;6.038;2023-05-29T07:03:52;12.18;;;2.58;;
59418;SDS011;45224;50.904;6.038;2023-05-29T07:05:23;15.95;;;3.42;;
59418;SDS011;45224;50.904;6.038;2023-05-29T07:06:54;14.48;;;3.33;;
59418;SDS011;45224;50.904;6.038;2023-05-29T07:08:27;11.88;;;3.03;;
59418;SDS011;45224;50.904;6.038;2023-05-29T07:09:58;10.20;;;2.88;;
59418;SDS011;45224;50.904;6.038;2023-05-29T07:11:28;9.80;;;2.90;;
59418;SDS011;45224;50.904;6.038;2023-05-29T07:12:59;15.27;;;3.45;;
59418;SDS011;45224;50.904;6.038;2023-05-29T07:14:30;10.95;;;3.30;;
59418;SDS011;45224;50.904;6.038;2023-05-29T07:17:36;15.27;;;3.15;;
59418;SDS011;45224;50.904;6.038;2023-05-29T07:19:17;9.90;;;2.35;;
59418;SDS011;45224;50.904;6.038;2023-05-29T07:20:48;12.13;;;3.35;;
59418;SDS011;45224;50.904;6.038;2023-05-29T07:22:22;13.07;;;2.97;;
59418;SDS011;45224;50.904;6.038;2023-05-29T07:23:52;15.38;;;3.25;;
59418;SDS011;45224;50.904;6.038;2023-05-29T07:25:23;12.77;;;3.30;;
59418;SDS011;45224;50.904;6.038;2023-05-29T07:26:53;12.10;;;3.10;;
59418;SDS011;45224;50.904;6.038;2023-05-29T07:28:25;14.80;;;3.25;;
59418;SDS011;45224;50.904;6.038;2023-05-29T07:29:56;15.35;;;3.83;;
59418;SDS011;45224;50.904;6.038;2023-05-29T07:31:27;14.07;;;3.10;;
59418;SDS011;45224;50.904;6.038;2023-05-29T07:32:58;15.33;;;3.50;;
59418;SDS011;45224;50.904;6.038;2023-05-29T07:34:28;14.73;;;3.30;;
59418;SDS011;45224;50.904;6.038;2023-05-29T07:37:30;13.97;;;3.33;;
59418;SDS011;45224;50.904;6.038;2023-05-29T07:39:02;15.40;;;3.28;;
59418;SDS011;45224;50.904;6.038;2023-05-29T07:40:33;13.10;;;3.95;;
59418;SDS011;45224;50.904;6.038;2023-05-29T07:42:27;14.88;;;3.45;;
59418;SDS011;45224;50.904;6.038;2023-05-29T07:43:58;16.07;;;3.67;;
59418;SDS011;45224;50.904;6.038;2023-05-29T07:45:28;12.68;;;3.60;;
59418;SDS011;45224;50.904;6.038;2023-05-29T07:46:59;14.60;;;3.67;;
59418;SDS011;45224;50.904;6.038;2023-05-29T07:48:41;14.10;;;3.28;;
59418;SDS011;45224;50.904;6.038;2023-05-29T07:50:13;14.33;;;3.83;;
59418;SDS011;45224;50.904;6.038;2023-05-29T07:51:44;9.77;;;3.17;;
59418;SDS011;45224;50.904;6.038;2023-05-29T07:53:15;12.25;;;3.03;;
59418;SDS011;45224;50.904;6.038;2023-05-29T07:54:46;13.50;;;3.70;;
59418;SDS011;45224;50.904;6.038;2023-05-29T07:56:17;16.67;;;3.85;;
59418;SDS011;45224;50.904;6.038;2023-05-29T07:57:48;14.02;;;3.70;;
59418;SDS011;45224;50.904;6.038;2023-05-29T07:59:19;14.15;;;3.85;;
59418;SDS011;45224;50.904;6.038;2023-05-29T08:00:49;14.40;;;3.80;;
59418;SDS011;45224;50.904;6.038;2023-05-29T08:02:21;11.25;;;3.40;;
59418;SDS011;45224;50.904;6.038;2023-05-29T08:04:12;12.73;;;2.90;;
59418;SDS011;45224;50.904;6.038;2023-05-29T08:05:42;14.18;;;3.35;;
59418;SDS011;45224;50.904;6.038;2023-05-29T08:07:16;13.00;;;3.38;;
59418;SDS011;45224;50.904;6.038;2023-05-29T08:08:46;10.52;;;3.28;;
59418;SDS011;45224;50.904;6.038;2023-05-29T08:10:17;10.57;;;3.22;;
59418;SDS011;45224;50.904;6.038;2023-05-29T08:11:48;14.23;;;3.20;;
59418;SDS011;45224;50.904;6.038;2023-05-29T08:13:18;11.15;;;3.30;;
59418;SDS011;45224;50.904;6.038;2023-05-29T08:16:21;11.70;;;3.45;;
59418;SDS011;45224;50.904;6.038;2023-05-29T08:17:52;11.88;;;3.13;;
59418;SDS011;45224;50.904;6.038;2023-05-29T08:19:23;13.70;;;3.42;;
59418;SDS011;45224;50.904;6.038;2023-05-29T08:20:53;12.23;;;3.42;;
59418;SDS011;45224;50.904;6.038;2023-05-29T08:22:28;15.27;;;3.38;;
59418;SDS011;45224;50.904;6.038;2023-05-29T08:24:03;12.82;;;3.70;;
59418;SDS011;45224;50.904;6.038;2023-05-29T08:25:37;10.88;;;3.42;;
59418;SDS011;45224;50.904;6.038;2023-05-29T08:27:07;10.93;;;3.13;;
59418;SDS011;45224;50.904;6.038;2023-05-29T08:28:38;15.15;;;3.65;;
59418;SDS011;45224;50.904;6.038;2023-05-29T08:31:40;12.38;;;3.50;;
59418;SDS011;45224;50.904;6.038;2023-05-29T08:33:10;13.40;;;3.63;;
59418;SDS011;45224;50.904;6.038;2023-05-29T08:34:41;11.55;;;3.40;;
59418;SDS011;45224;50.904;6.038;2023-05-29T08:36:12;13.15;;;3.13;;
59418;SDS011;45224;50.904;6.038;2023-05-29T08:39:12;11.93;;;3.25;;
59418;SDS011;45224;50.904;6.038;2023-05-29T08:40:43;11.52;;;3.20;;
59418;SDS011;45224;50.904;6.038;2023-05-29T08:42:18;13.15;;;3.33;;
59418;SDS011;45224;50.904;6.038;2023-05-29T08:43:52;11.20;;;3.72;;
59418;SDS011;45224;50.904;6.038;2023-05-29T08:45:23;10.25;;;3.38;;
59418;SDS011;45224;50.904;6.038;2023-05-29T08:46:55;13.13;;;3.17;;
59418;SDS011;45224;50.904;6.038;2023-05-29T08:48:26;10.98;;;3.65;;
59418;SDS011;45224;50.904;6.038;2023-05-29T08:49:58;13.38;;;3.58;;
59418;SDS011;45224;50.904;6.038;2023-05-29T08:51:35;13.85;;;3.60;;
59418;SDS011;45224;50.904;6.038;2023-05-29T08:53:10;8.88;;;3.00;;
59418;SDS011;45224;50.904;6.038;2023-05-29T08:56:12;13.20;;;3.23;;
59418;SDS011;45224;50.904;6.038;2023-05-29T08:57:42;15.15;;;3.78;;
59418;SDS011;45224;50.904;6.038;2023-05-29T08:59:14;11.20;;;3.50;;
59418;SDS011;45224;50.904;6.038;2023-05-29T09:00:46;13.30;;;3.58;;
59418;SDS011;45224;50.904;6.038;2023-05-29T09:02:17;17.48;;;3.20;;
59418;SDS011;45224;50.904;6.038;2023-05-29T09:05:18;11.87;;;3.20;;
59418;SDS011;45224;50.904;6.038;2023-05-29T09:06:51;13.65;;;3.38;;
59418;SDS011;45224;50.904;6.038;2023-05-29T09:08:22;14.20;;;3.38;;
59418;SDS011;45224;50.904;6.038;2023-05-29T09:11:24;16.37;;;4.23;;
59418;SDS011;45224;50.904;6.038;2023-05-29T09:12:56;13.07;;;3.50;;
59418;SDS011;45224;50.904;6.038;2023-05-29T09:16:06;11.82;;;3.10;;
59418;SDS011;45224;50.904;6.038;2023-05-29T09:17:37;14.30;;;3.20;;
59418;SDS011;45224;50.904;6.038;2023-05-29T09:20:38;14.03;;;3.60;;
